Current Weather

Sydney Intl

Sydney Intl, Australia (YSSY)

Report from: Monday, February 6, 2023 5:30 PM AEDT
Current time: Monday, February 6, 2023 6:02 PM AEDT

Nearby weather
Weather history
Weather forecast

Present weatherOFFICE
Temperature27.0°C (80.6°F)
Heat index28.4°C (83.2°F)
Dew point19.0°C (66.2°F)
Winds 20 kts (10.3 m/s, 23 mph) Northeast (50°)
Visibility6.2 mi. (10 km)
Clouds Few clouds 2,000 ft. (610 m)
Altimeter29.94 in.Hg (1014 mB)
Relative humidity62 %
Density altitude1,657 ft. (505 m)
Flight conditions Visual Meteorological Conditions
Raw dataYSSY 060630Z 05020KT 9999 FEW020 27/19 Q1014 OFFICE CLOSED, REOPENS 09:00Z
An error has occurred. This application may no longer respond until reloaded. Reload 🗙